sensor_id;sensor_type;location;lat;lon;timestamp;P1;durP1;ratioP1;P2;durP2;ratioP2
29816;SDS011;16805;52.956;5.906;2023-10-13T00:01:21;20.05;;;11.07;;
29816;SDS011;16805;52.956;5.906;2023-10-13T00:03:48;21.05;;;10.93;;
29816;SDS011;16805;52.956;5.906;2023-10-13T00:06:14;17.08;;;11.35;;
29816;SDS011;16805;52.956;5.906;2023-10-13T00:08:40;14.05;;;11.05;;
29816;SDS011;16805;52.956;5.906;2023-10-13T00:11:06;13.35;;;10.30;;
29816;SDS011;16805;52.956;5.906;2023-10-13T00:13:37;13.68;;;9.60;;
29816;SDS011;16805;52.956;5.906;2023-10-13T00:16:15;16.05;;;9.80;;
29816;SDS011;16805;52.956;5.906;2023-10-13T00:18:47;16.70;;;9.27;;
29816;SDS011;16805;52.956;5.906;2023-10-13T00:21:15;15.43;;;8.70;;
29816;SDS011;16805;52.956;5.906;2023-10-13T00:23:49;13.65;;;9.15;;
29816;SDS011;16805;52.956;5.906;2023-10-13T00:26:18;21.15;;;8.40;;
29816;SDS011;16805;52.956;5.906;2023-10-13T00:31:26;15.68;;;7.70;;
29816;SDS011;16805;52.956;5.906;2023-10-13T00:34:01;10.52;;;6.95;;
29816;SDS011;16805;52.956;5.906;2023-10-13T00:36:43;13.13;;;6.90;;
29816;SDS011;16805;52.956;5.906;2023-10-13T00:39:35;13.50;;;7.32;;
29816;SDS011;16805;52.956;5.906;2023-10-13T00:42:04;13.85;;;6.88;;
29816;SDS011;16805;52.956;5.906;2023-10-13T00:44:42;11.80;;;6.75;;
29816;SDS011;16805;52.956;5.906;2023-10-13T00:47:13;8.13;;;6.88;;
29816;SDS011;16805;52.956;5.906;2023-10-13T00:49:46;16.42;;;6.25;;
29816;SDS011;16805;52.956;5.906;2023-10-13T00:52:13;12.57;;;7.03;;
29816;SDS011;16805;52.956;5.906;2023-10-13T00:54:40;14.27;;;7.10;;
29816;SDS011;16805;52.956;5.906;2023-10-13T00:57:12;15.75;;;7.47;;
29816;SDS011;16805;52.956;5.906;2023-10-13T00:59:55;16.33;;;6.05;;
29816;SDS011;16805;52.956;5.906;2023-10-13T01:02:25;19.45;;;7.95;;
29816;SDS011;16805;52.956;5.906;2023-10-13T01:05:11;13.77;;;7.57;;
29816;SDS011;16805;52.956;5.906;2023-10-13T01:07:44;16.13;;;7.57;;
29816;SDS011;16805;52.956;5.906;2023-10-13T01:10:15;13.15;;;7.20;;
29816;SDS011;16805;52.956;5.906;2023-10-13T01:12:41;11.32;;;7.00;;
29816;SDS011;16805;52.956;5.906;2023-10-13T01:15:08;10.40;;;6.20;;
29816;SDS011;16805;52.956;5.906;2023-10-13T01:17:36;7.30;;;6.07;;
29816;SDS011;16805;52.956;5.906;2023-10-13T01:20:02;9.43;;;5.82;;
29816;SDS011;16805;52.956;5.906;2023-10-13T01:22:29;13.88;;;6.38;;
29816;SDS011;16805;52.956;5.906;2023-10-13T01:24:57;10.07;;;6.47;;
29816;SDS011;16805;52.956;5.906;2023-10-13T01:27:34;9.98;;;6.53;;
29816;SDS011;16805;52.956;5.906;2023-10-13T01:30:03;13.40;;;6.38;;
29816;SDS011;16805;52.956;5.906;2023-10-13T01:35:06;12.77;;;7.75;;
29816;SDS011;16805;52.956;5.906;2023-10-13T01:37:32;13.57;;;7.90;;
29816;SDS011;16805;52.956;5.906;2023-10-13T01:39:58;15.57;;;8.63;;
29816;SDS011;16805;52.956;5.906;2023-10-13T01:42:23;13.80;;;8.02;;
29816;SDS011;16805;52.956;5.906;2023-10-13T01:44:50;10.30;;;8.13;;
29816;SDS011;16805;52.956;5.906;2023-10-13T01:47:16;15.60;;;7.88;;
29816;SDS011;16805;52.956;5.906;2023-10-13T01:49:42;12.43;;;8.55;;
29816;SDS011;16805;52.956;5.906;2023-10-13T01:52:12;14.10;;;8.48;;
29816;SDS011;16805;52.956;5.906;2023-10-13T01:54:40;12.23;;;8.75;;
29816;SDS011;16805;52.956;5.906;2023-10-13T01:57:09;15.52;;;9.77;;
29816;SDS011;16805;52.956;5.906;2023-10-13T01:59:45;16.15;;;8.50;;
29816;SDS011;16805;52.956;5.906;2023-10-13T02:02:13;13.85;;;9.02;;
29816;SDS011;16805;52.956;5.906;2023-10-13T02:04:39;15.93;;;9.35;;
29816;SDS011;16805;52.956;5.906;2023-10-13T02:07:21;18.08;;;9.68;;
29816;SDS011;16805;52.956;5.906;2023-10-13T02:09:51;21.63;;;9.80;;
29816;SDS011;16805;52.956;5.906;2023-10-13T02:12:19;14.68;;;10.65;;
29816;SDS011;16805;52.956;5.906;2023-10-13T02:14:51;20.25;;;10.57;;
29816;SDS011;16805;52.956;5.906;2023-10-13T02:17:16;15.10;;;10.02;;
29816;SDS011;16805;52.956;5.906;2023-10-13T02:19:46;17.73;;;11.35;;
29816;SDS011;16805;52.956;5.906;2023-10-13T02:22:12;21.73;;;11.00;;
29816;SDS011;16805;52.956;5.906;2023-10-13T02:24:51;18.02;;;10.93;;
29816;SDS011;16805;52.956;5.906;2023-10-13T02:27:17;26.55;;;11.70;;
29816;SDS011;16805;52.956;5.906;2023-10-13T02:29:48;26.73;;;12.23;;
29816;SDS011;16805;52.956;5.906;2023-10-13T02:32:15;19.50;;;11.23;;
29816;SDS011;16805;52.956;5.906;2023-10-13T02:34:46;14.88;;;11.05;;
29816;SDS011;16805;52.956;5.906;2023-10-13T02:37:12;18.17;;;10.68;;
29816;SDS011;16805;52.956;5.906;2023-10-13T02:39:38;14.38;;;10.27;;
29816;SDS011;16805;52.956;5.906;2023-10-13T02:42:07;14.80;;;11.32;;
29816;SDS011;16805;52.956;5.906;2023-10-13T02:44:34;15.23;;;9.98;;
29816;SDS011;16805;52.956;5.906;2023-10-13T02:47:01;11.27;;;8.88;;
29816;SDS011;16805;52.956;5.906;2023-10-13T02:49:38;12.30;;;8.35;;
29816;SDS011;16805;52.956;5.906;2023-10-13T02:52:08;10.43;;;7.45;;
29816;SDS011;16805;52.956;5.906;2023-10-13T02:54:34;8.25;;;7.13;;
29816;SDS011;16805;52.956;5.906;2023-10-13T02:57:08;11.02;;;6.60;;
29816;SDS011;16805;52.956;5.906;2023-10-13T02:59:33;7.20;;;6.05;;
29816;SDS011;16805;52.956;5.906;2023-10-13T03:02:02;8.82;;;6.25;;
29816;SDS011;16805;52.956;5.906;2023-10-13T03:04:51;9.25;;;5.90;;
29816;SDS011;16805;52.956;5.906;2023-10-13T03:07:24;7.47;;;5.57;;
29816;SDS011;16805;52.956;5.906;2023-10-13T03:09:53;9.52;;;5.57;;
29816;SDS011;16805;52.956;5.906;2023-10-13T03:12:25;11.35;;;5.97;;
29816;SDS011;16805;52.956;5.906;2023-10-13T03:14:51;8.48;;;7.07;;
29816;SDS011;16805;52.956;5.906;2023-10-13T03:17:28;10.65;;;7.75;;
29816;SDS011;16805;52.956;5.906;2023-10-13T03:20:00;11.57;;;8.00;;
29816;SDS011;16805;52.956;5.906;2023-10-13T03:22:25;11.68;;;9.02;;
29816;SDS011;16805;52.956;5.906;2023-10-13T03:24:58;12.98;;;8.40;;
29816;SDS011;16805;52.956;5.906;2023-10-13T03:27:31;10.95;;;8.35;;
29816;SDS011;16805;52.956;5.906;2023-10-13T03:30:29;11.40;;;8.35;;
29816;SDS011;16805;52.956;5.906;2023-10-13T03:33:01;10.52;;;7.55;;
29816;SDS011;16805;52.956;5.906;2023-10-13T03:35:31;13.63;;;8.13;;
29816;SDS011;16805;52.956;5.906;2023-10-13T03:38:07;10.55;;;7.43;;
29816;SDS011;16805;52.956;5.906;2023-10-13T03:40:42;11.52;;;7.43;;
29816;SDS011;16805;52.956;5.906;2023-10-13T03:43:14;9.18;;;7.65;;
29816;SDS011;16805;52.956;5.906;2023-10-13T03:45:48;10.35;;;8.13;;
29816;SDS011;16805;52.956;5.906;2023-10-13T03:48:18;9.20;;;7.80;;
29816;SDS011;16805;52.956;5.906;2023-10-13T03:50:50;11.52;;;8.63;;
29816;SDS011;16805;52.956;5.906;2023-10-13T03:53:28;11.63;;;7.78;;
29816;SDS011;16805;52.956;5.906;2023-10-13T03:56:01;12.18;;;8.50;;
29816;SDS011;16805;52.956;5.906;2023-10-13T03:58:37;15.63;;;8.68;;
29816;SDS011;16805;52.956;5.906;2023-10-13T04:01:06;11.18;;;8.50;;
29816;SDS011;16805;52.956;5.906;2023-10-13T04:03:34;12.50;;;8.60;;
29816;SDS011;16805;52.956;5.906;2023-10-13T04:06:01;10.02;;;7.85;;
29816;SDS011;16805;52.956;5.906;2023-10-13T04:08:33;18.23;;;9.60;;
29816;SDS011;16805;52.956;5.906;2023-10-13T04:11:08;14.98;;;9.35;;
29816;SDS011;16805;52.956;5.906;2023-10-13T04:13:52;13.18;;;10.13;;
29816;SDS011;16805;52.956;5.906;2023-10-13T04:16:37;14.95;;;10.48;;
29816;SDS011;16805;52.956;5.906;2023-10-13T04:19:12;14.35;;;9.52;;
29816;SDS011;16805;52.956;5.906;2023-10-13T04:21:47;17.67;;;9.65;;
29816;SDS011;16805;52.956;5.906;2023-10-13T04:24:23;11.73;;;9.00;;
29816;SDS011;16805;52.956;5.906;2023-10-13T04:26:51;19.35;;;11.15;;
29816;SDS011;16805;52.956;5.906;2023-10-13T04:29:36;15.40;;;10.65;;
29816;SDS011;16805;52.956;5.906;2023-10-13T04:32:21;14.00;;;8.93;;
29816;SDS011;16805;52.956;5.906;2023-10-13T04:35:11;14.70;;;10.02;;
29816;SDS011;16805;52.956;5.906;2023-10-13T04:37:37;14.73;;;10.32;;
29816;SDS011;16805;52.956;5.906;2023-10-13T04:40:21;13.20;;;9.48;;
29816;SDS011;16805;52.956;5.906;2023-10-13T04:42:50;17.45;;;9.90;;
29816;SDS011;16805;52.956;5.906;2023-10-13T04:45:21;14.38;;;9.40;;
29816;SDS011;16805;52.956;5.906;2023-10-13T04:48:12;13.90;;;9.53;;
29816;SDS011;16805;52.956;5.906;2023-10-13T04:50:43;15.20;;;9.52;;
29816;SDS011;16805;52.956;5.906;2023-10-13T04:53:13;10.40;;;7.78;;
29816;SDS011;16805;52.956;5.906;2023-10-13T04:56:00;12.82;;;9.35;;
29816;SDS011;16805;52.956;5.906;2023-10-13T04:58:32;15.45;;;7.80;;
29816;SDS011;16805;52.956;5.906;2023-10-13T05:01:01;10.90;;;7.82;;
29816;SDS011;16805;52.956;5.906;2023-10-13T05:03:45;11.77;;;8.15;;
29816;SDS011;16805;52.956;5.906;2023-10-13T05:06:40;9.25;;;7.22;;
29816;SDS011;16805;52.956;5.906;2023-10-13T05:09:09;11.95;;;7.93;;
29816;SDS011;16805;52.956;5.906;2023-10-13T05:12:04;9.05;;;6.65;;
29816;SDS011;16805;52.956;5.906;2023-10-13T05:14:49;8.75;;;7.03;;
29816;SDS011;16805;52.956;5.906;2023-10-13T05:17:34;11.07;;;6.60;;
29816;SDS011;16805;52.956;5.906;2023-10-13T05:20:18;8.02;;;7.03;;
29816;SDS011;16805;52.956;5.906;2023-10-13T05:23:22;9.25;;;6.75;;
29816;SDS011;16805;52.956;5.906;2023-10-13T05:26:06;8.45;;;6.20;;
29816;SDS011;16805;52.956;5.906;2023-10-13T05:28:51;6.65;;;6.00;;
29816;SDS011;16805;52.956;5.906;2023-10-13T05:31:40;6.72;;;4.65;;
29816;SDS011;16805;52.956;5.906;2023-10-13T05:34:24;5.43;;;4.35;;
29816;SDS011;16805;52.956;5.906;2023-10-13T05:37:08;5.68;;;4.55;;
29816;SDS011;16805;52.956;5.906;2023-10-13T05:39:52;6.38;;;5.65;;
29816;SDS011;16805;52.956;5.906;2023-10-13T05:42:37;7.10;;;5.05;;
29816;SDS011;16805;52.956;5.906;2023-10-13T05:45:21;6.32;;;4.70;;
29816;SDS011;16805;52.956;5.906;2023-10-13T05:48:05;7.13;;;3.88;;
29816;SDS011;16805;52.956;5.906;2023-10-13T05:50:39;7.65;;;5.45;;
29816;SDS011;16805;52.956;5.906;2023-10-13T05:53:43;5.50;;;4.93;;
29816;SDS011;16805;52.956;5.906;2023-10-13T05:56:27;5.30;;;4.53;;
29816;SDS011;16805;52.956;5.906;2023-10-13T05:59:11;6.07;;;5.10;;
29816;SDS011;16805;52.956;5.906;2023-10-13T06:01:55;4.40;;;3.92;;
29816;SDS011;16805;52.956;5.906;2023-10-13T06:04:39;3.50;;;3.20;;
29816;SDS011;16805;52.956;5.906;2023-10-13T06:07:23;4.80;;;4.25;;
29816;SDS011;16805;52.956;5.906;2023-10-13T06:10:07;5.53;;;4.38;;
29816;SDS011;16805;52.956;5.906;2023-10-13T06:12:52;5.00;;;3.25;;
29816;SDS011;16805;52.956;5.906;2023-10-13T06:15:36;4.38;;;3.42;;
29816;SDS011;16805;52.956;5.906;2023-10-13T06:18:20;4.50;;;2.95;;
29816;SDS011;16805;52.956;5.906;2023-10-13T06:21:04;4.82;;;3.10;;
29816;SDS011;16805;52.956;5.906;2023-10-13T06:23:48;5.00;;;2.95;;
29816;SDS011;16805;52.956;5.906;2023-10-13T06:26:32;3.13;;;2.63;;
29816;SDS011;16805;52.956;5.906;2023-10-13T06:29:16;3.50;;;2.35;;
29816;SDS011;16805;52.956;5.906;2023-10-13T06:31:45;2.63;;;2.13;;
29816;SDS011;16805;52.956;5.906;2023-10-13T06:34:11;3.63;;;2.28;;
29816;SDS011;16805;52.956;5.906;2023-10-13T06:36:40;2.50;;;2.30;;
29816;SDS011;16805;52.956;5.906;2023-10-13T06:39:07;4.00;;;1.88;;
29816;SDS011;16805;52.956;5.906;2023-10-13T06:42:02;4.45;;;1.58;;
29816;SDS011;16805;52.956;5.906;2023-10-13T06:44:28;3.03;;;1.85;;
29816;SDS011;16805;52.956;5.906;2023-10-13T06:46:57;3.72;;;2.03;;
29816;SDS011;16805;52.956;5.906;2023-10-13T06:49:23;2.60;;;1.85;;
29816;SDS011;16805;52.956;5.906;2023-10-13T06:51:49;3.78;;;1.80;;
29816;SDS011;16805;52.956;5.906;2023-10-13T06:54:14;6.10;;;1.75;;
29816;SDS011;16805;52.956;5.906;2023-10-13T06:56:46;2.83;;;1.75;;
29816;SDS011;16805;52.956;5.906;2023-10-13T06:59:16;5.95;;;2.38;;
29816;SDS011;16805;52.956;5.906;2023-10-13T07:01:42;2.30;;;1.65;;
29816;SDS011;16805;52.956;5.906;2023-10-13T07:04:09;7.43;;;2.70;;
29816;SDS011;16805;52.956;5.906;2023-10-13T07:06:40;6.75;;;1.92;;
29816;SDS011;16805;52.956;5.906;2023-10-13T07:09:14;6.45;;;2.13;;
29816;SDS011;16805;52.956;5.906;2023-10-13T07:12:01;4.75;;;2.13;;
29816;SDS011;16805;52.956;5.906;2023-10-13T07:14:28;8.13;;;2.17;;
29816;SDS011;16805;52.956;5.906;2023-10-13T07:17:02;4.57;;;2.22;;
29816;SDS011;16805;52.956;5.906;2023-10-13T07:19:30;4.00;;;2.25;;
29816;SDS011;16805;52.956;5.906;2023-10-13T07:21:56;7.35;;;2.38;;
29816;SDS011;16805;52.956;5.906;2023-10-13T07:24:43;6.28;;;2.15;;
29816;SDS011;16805;52.956;5.906;2023-10-13T07:27:08;6.60;;;2.05;;
29816;SDS011;16805;52.956;5.906;2023-10-13T07:29:34;7.18;;;2.22;;
29816;SDS011;16805;52.956;5.906;2023-10-13T07:32:00;6.97;;;2.45;;
29816;SDS011;16805;52.956;5.906;2023-10-13T07:34:37;10.00;;;2.67;;
29816;SDS011;16805;52.956;5.906;2023-10-13T07:37:04;6.15;;;2.50;;
29816;SDS011;16805;52.956;5.906;2023-10-13T07:39:33;7.57;;;2.63;;
29816;SDS011;16805;52.956;5.906;2023-10-13T07:41:59;6.72;;;2.38;;
29816;SDS011;16805;52.956;5.906;2023-10-13T07:44:33;13.90;;;2.40;;
29816;SDS011;16805;52.956;5.906;2023-10-13T07:47:02;10.90;;;2.38;;
29816;SDS011;16805;52.956;5.906;2023-10-13T07:49:36;8.35;;;2.35;;
29816;SDS011;16805;52.956;5.906;2023-10-13T07:52:09;11.75;;;2.50;;
29816;SDS011;16805;52.956;5.906;2023-10-13T07:54:46;9.98;;;2.05;;
29816;SDS011;16805;52.956;5.906;2023-10-13T07:57:21;8.30;;;2.92;;
29816;SDS011;16805;52.956;5.906;2023-10-13T07:59:54;5.93;;;1.95;;
29816;SDS011;16805;52.956;5.906;2023-10-13T08:02:31;5.90;;;2.50;;
29816;SDS011;16805;52.956;5.906;2023-10-13T08:05:16;6.03;;;2.40;;
29816;SDS011;16805;52.956;5.906;2023-10-13T08:08:01;13.45;;;2.60;;
29816;SDS011;16805;52.956;5.906;2023-10-13T08:10:34;6.82;;;2.72;;
29816;SDS011;16805;52.956;5.906;2023-10-13T08:13:01;11.15;;;2.78;;
29816;SDS011;16805;52.956;5.906;2023-10-13T08:15:26;5.28;;;2.65;;
29816;SDS011;16805;52.956;5.906;2023-10-13T08:17:59;5.63;;;2.45;;
29816;SDS011;16805;52.956;5.906;2023-10-13T08:20:30;7.13;;;2.55;;
29816;SDS011;16805;52.956;5.906;2023-10-13T08:22:55;4.20;;;2.00;;
29816;SDS011;16805;52.956;5.906;2023-10-13T08:25:38;6.93;;;3.20;;
29816;SDS011;16805;52.956;5.906;2023-10-13T08:28:22;7.75;;;2.28;;
29816;SDS011;16805;52.956;5.906;2023-10-13T08:31:06;7.25;;;3.10;;
29816;SDS011;16805;52.956;5.906;2023-10-13T08:33:51;8.60;;;3.17;;
29816;SDS011;16805;52.956;5.906;2023-10-13T08:36:30;7.00;;;3.22;;
29816;SDS011;16805;52.956;5.906;2023-10-13T08:38:56;6.25;;;2.90;;
29816;SDS011;16805;52.956;5.906;2023-10-13T08:41:22;5.75;;;3.35;;
29816;SDS011;16805;52.956;5.906;2023-10-13T08:43:51;9.18;;;3.72;;
29816;SDS011;16805;52.956;5.906;2023-10-13T08:46:28;10.45;;;4.45;;
29816;SDS011;16805;52.956;5.906;2023-10-13T08:48:59;4.57;;;3.47;;
29816;SDS011;16805;52.956;5.906;2023-10-13T08:51:39;9.70;;;4.40;;
29816;SDS011;16805;52.956;5.906;2023-10-13T08:54:28;12.60;;;4.30;;
29816;SDS011;16805;52.956;5.906;2023-10-13T08:57:04;7.38;;;4.13;;
29816;SDS011;16805;52.956;5.906;2023-10-13T09:00:02;6.63;;;3.58;;
29816;SDS011;16805;52.956;5.906;2023-10-13T09:02:47;9.88;;;4.65;;
29816;SDS011;16805;52.956;5.906;2023-10-13T09:05:24;6.47;;;4.50;;
29816;SDS011;16805;52.956;5.906;2023-10-13T09:08:25;9.07;;;3.90;;
29816;SDS011;16805;52.956;5.906;2023-10-13T09:11:01;7.65;;;4.55;;
29816;SDS011;16805;52.956;5.906;2023-10-13T09:13:37;8.93;;;4.20;;
29816;SDS011;16805;52.956;5.906;2023-10-13T09:16:10;5.05;;;4.00;;
29816;SDS011;16805;52.956;5.906;2023-10-13T09:18:42;7.97;;;3.90;;
29816;SDS011;16805;52.956;5.906;2023-10-13T09:21:11;8.43;;;4.00;;
29816;SDS011;16805;52.956;5.906;2023-10-13T09:23:59;7.53;;;3.35;;
29816;SDS011;16805;52.956;5.906;2023-10-13T09:26:43;8.50;;;3.65;;
29816;SDS011;16805;52.956;5.906;2023-10-13T09:29:16;6.70;;;3.00;;
29816;SDS011;16805;52.956;5.906;2023-10-13T09:31:43;6.18;;;3.53;;
29816;SDS011;16805;52.956;5.906;2023-10-13T09:34:19;7.53;;;3.50;;
29816;SDS011;16805;52.956;5.906;2023-10-13T09:36:47;6.38;;;3.38;;
29816;SDS011;16805;52.956;5.906;2023-10-13T09:39:12;3.95;;;2.55;;
29816;SDS011;16805;52.956;5.906;2023-10-13T09:41:54;8.40;;;2.60;;
29816;SDS011;16805;52.956;5.906;2023-10-13T09:44:20;14.98;;;3.28;;
29816;SDS011;16805;52.956;5.906;2023-10-13T09:46:46;4.50;;;2.03;;
29816;SDS011;16805;52.956;5.906;2023-10-13T09:49:14;7.03;;;2.97;;
29816;SDS011;16805;52.956;5.906;2023-10-13T09:51:59;7.25;;;2.65;;
29816;SDS011;16805;52.956;5.906;2023-10-13T09:54:28;8.70;;;3.20;;
29816;SDS011;16805;52.956;5.906;2023-10-13T09:57:13;6.63;;;2.90;;
29816;SDS011;16805;52.956;5.906;2023-10-13T10:02:22;6.10;;;2.95;;
29816;SDS011;16805;52.956;5.906;2023-10-13T10:04:54;6.45;;;3.10;;
29816;SDS011;16805;52.956;5.906;2023-10-13T10:07:53;6.35;;;3.25;;
29816;SDS011;16805;52.956;5.906;2023-10-13T10:13:47;12.20;;;3.67;;
29816;SDS011;16805;52.956;5.906;2023-10-13T10:16:19;9.73;;;3.67;;
29816;SDS011;16805;52.956;5.906;2023-10-13T10:19:01;8.27;;;2.97;;
29816;SDS011;16805;52.956;5.906;2023-10-13T10:21:33;11.55;;;3.00;;
29816;SDS011;16805;52.956;5.906;2023-10-13T10:24:21;13.25;;;3.72;;
29816;SDS011;16805;52.956;5.906;2023-10-13T10:26:58;13.02;;;3.85;;
29816;SDS011;16805;52.956;5.906;2023-10-13T10:29:24;10.25;;;2.85;;
29816;SDS011;16805;52.956;5.906;2023-10-13T10:31:49;6.70;;;3.40;;
29816;SDS011;16805;52.956;5.906;2023-10-13T10:34:16;9.80;;;3.17;;
29816;SDS011;16805;52.956;5.906;2023-10-13T10:36:56;13.82;;;3.20;;
29816;SDS011;16805;52.956;5.906;2023-10-13T10:39:33;6.28;;;2.83;;
29816;SDS011;16805;52.956;5.906;2023-10-13T10:42:10;9.90;;;3.35;;
29816;SDS011;16805;52.956;5.906;2023-10-13T10:44:49;8.20;;;3.20;;
29816;SDS011;16805;52.956;5.906;2023-10-13T10:47:20;11.70;;;3.50;;
29816;SDS011;16805;52.956;5.906;2023-10-13T10:50:04;13.40;;;3.72;;
29816;SDS011;16805;52.956;5.906;2023-10-13T10:52:44;8.55;;;3.42;;
29816;SDS011;16805;52.956;5.906;2023-10-13T10:55:11;6.28;;;3.00;;
29816;SDS011;16805;52.956;5.906;2023-10-13T10:57:38;9.25;;;2.95;;
29816;SDS011;16805;52.956;5.906;2023-10-13T11:00:17;9.10;;;3.05;;
29816;SDS011;16805;52.956;5.906;2023-10-13T11:02:55;11.13;;;2.88;;
29816;SDS011;16805;52.956;5.906;2023-10-13T11:05:21;6.22;;;2.97;;
29816;SDS011;16805;52.956;5.906;2023-10-13T11:07:49;7.90;;;3.00;;
29816;SDS011;16805;52.956;5.906;2023-10-13T11:10:16;9.10;;;3.60;;
29816;SDS011;16805;52.956;5.906;2023-10-13T11:12:56;8.48;;;3.38;;
29816;SDS011;16805;52.956;5.906;2023-10-13T11:15:44;7.90;;;2.47;;
29816;SDS011;16805;52.956;5.906;2023-10-13T11:18:10;8.57;;;3.30;;
29816;SDS011;16805;52.956;5.906;2023-10-13T11:20:42;13.05;;;3.30;;
29816;SDS011;16805;52.956;5.906;2023-10-13T11:23:14;7.25;;;2.70;;
29816;SDS011;16805;52.956;5.906;2023-10-13T11:25:40;7.22;;;2.85;;
29816;SDS011;16805;52.956;5.906;2023-10-13T11:28:15;8.02;;;2.78;;
29816;SDS011;16805;52.956;5.906;2023-10-13T11:30:46;11.55;;;2.88;;
29816;SDS011;16805;52.956;5.906;2023-10-13T11:33:15;9.73;;;3.85;;
29816;SDS011;16805;52.956;5.906;2023-10-13T11:35:52;9.80;;;3.33;;
29816;SDS011;16805;52.956;5.906;2023-10-13T11:38:18;10.90;;;2.75;;
29816;SDS011;16805;52.956;5.906;2023-10-13T11:40:51;7.32;;;3.05;;
29816;SDS011;16805;52.956;5.906;2023-10-13T11:43:33;5.35;;;2.58;;
29816;SDS011;16805;52.956;5.906;2023-10-13T11:46:11;9.88;;;3.33;;
29816;SDS011;16805;52.956;5.906;2023-10-13T11:48:38;7.00;;;3.00;;
29816;SDS011;16805;52.956;5.906;2023-10-13T11:51:07;13.18;;;3.28;;
29816;SDS011;16805;52.956;5.906;2023-10-13T11:53:34;4.93;;;3.15;;
29816;SDS011;16805;52.956;5.906;2023-10-13T11:56:01;5.43;;;2.42;;
29816;SDS011;16805;52.956;5.906;2023-10-13T11:58:33;4.72;;;2.85;;
29816;SDS011;16805;52.956;5.906;2023-10-13T12:00:59;10.57;;;3.28;;
29816;SDS011;16805;52.956;5.906;2023-10-13T12:03:46;8.15;;;3.67;;
29816;SDS011;16805;52.956;5.906;2023-10-13T12:06:32;7.25;;;3.45;;
29816;SDS011;16805;52.956;5.906;2023-10-13T12:09:08;8.00;;;2.75;;
29816;SDS011;16805;52.956;5.906;2023-10-13T12:11:37;10.50;;;4.38;;
29816;SDS011;16805;52.956;5.906;2023-10-13T12:14:07;8.57;;;3.40;;
29816;SDS011;16805;52.956;5.906;2023-10-13T12:16:44;15.60;;;3.97;;
29816;SDS011;16805;52.956;5.906;2023-10-13T12:19:17;7.93;;;2.72;;
29816;SDS011;16805;52.956;5.906;2023-10-13T12:21:48;8.60;;;4.07;;
29816;SDS011;16805;52.956;5.906;2023-10-13T12:27:05;9.82;;;3.50;;
29816;SDS011;16805;52.956;5.906;2023-10-13T12:29:50;6.32;;;3.42;;
29816;SDS011;16805;52.956;5.906;2023-10-13T12:32:17;3.85;;;2.63;;
29816;SDS011;16805;52.956;5.906;2023-10-13T12:34:48;13.27;;;4.03;;
29816;SDS011;16805;52.956;5.906;2023-10-13T12:37:30;9.02;;;3.70;;
29816;SDS011;16805;52.956;5.906;2023-10-13T12:40:09;4.57;;;4.03;;
29816;SDS011;16805;52.956;5.906;2023-10-13T12:42:56;5.32;;;3.30;;
29816;SDS011;16805;52.956;5.906;2023-10-13T12:45:41;11.80;;;3.92;;
29816;SDS011;16805;52.956;5.906;2023-10-13T12:48:25;7.78;;;3.67;;
29816;SDS011;16805;52.956;5.906;2023-10-13T12:51:10;6.93;;;3.78;;
29816;SDS011;16805;52.956;5.906;2023-10-13T12:53:48;5.93;;;3.70;;
29816;SDS011;16805;52.956;5.906;2023-10-13T12:56:17;9.48;;;4.47;;
29816;SDS011;16805;52.956;5.906;2023-10-13T12:58:51;14.65;;;4.47;;
29816;SDS011;16805;52.956;5.906;2023-10-13T13:01:18;9.93;;;3.92;;
29816;SDS011;16805;52.956;5.906;2023-10-13T13:03:47;11.48;;;4.18;;
29816;SDS011;16805;52.956;5.906;2023-10-13T13:06:18;14.50;;;4.28;;
29816;SDS011;16805;52.956;5.906;2023-10-13T13:08:54;16.73;;;3.67;;
29816;SDS011;16805;52.956;5.906;2023-10-13T13:11:26;9.57;;;3.97;;
29816;SDS011;16805;52.956;5.906;2023-10-13T13:13:55;13.00;;;4.10;;
29816;SDS011;16805;52.956;5.906;2023-10-13T13:16:20;9.63;;;3.50;;
29816;SDS011;16805;52.956;5.906;2023-10-13T13:18:52;9.85;;;3.90;;
29816;SDS011;16805;52.956;5.906;2023-10-13T13:21:20;17.00;;;4.20;;
29816;SDS011;16805;52.956;5.906;2023-10-13T13:23:48;7.97;;;3.55;;
29816;SDS011;16805;52.956;5.906;2023-10-13T13:26:15;9.73;;;4.10;;
29816;SDS011;16805;52.956;5.906;2023-10-13T13:28:42;11.98;;;4.40;;
29816;SDS011;16805;52.956;5.906;2023-10-13T13:31:08;6.75;;;3.75;;
29816;SDS011;16805;52.956;5.906;2023-10-13T13:33:34;11.82;;;3.90;;
29816;SDS011;16805;52.956;5.906;2023-10-13T13:36:06;8.68;;;3.85;;
29816;SDS011;16805;52.956;5.906;2023-10-13T13:38:32;11.95;;;4.03;;
29816;SDS011;16805;52.956;5.906;2023-10-13T13:40:58;8.98;;;4.55;;
29816;SDS011;16805;52.956;5.906;2023-10-13T13:43:27;6.95;;;4.20;;
29816;SDS011;16805;52.956;5.906;2023-10-13T13:46:11;13.20;;;4.00;;
29816;SDS011;16805;52.956;5.906;2023-10-13T13:48:37;7.40;;;4.03;;
29816;SDS011;16805;52.956;5.906;2023-10-13T13:51:05;11.02;;;4.05;;
29816;SDS011;16805;52.956;5.906;2023-10-13T13:53:39;13.23;;;4.00;;
29816;SDS011;16805;52.956;5.906;2023-10-13T13:56:08;7.50;;;3.85;;
29816;SDS011;16805;52.956;5.906;2023-10-13T13:58:33;9.27;;;4.43;;
29816;SDS011;16805;52.956;5.906;2023-10-13T14:01:02;6.95;;;3.95;;
29816;SDS011;16805;52.956;5.906;2023-10-13T14:03:38;9.68;;;4.13;;
29816;SDS011;16805;52.956;5.906;2023-10-13T14:06:10;5.50;;;3.10;;
29816;SDS011;16805;52.956;5.906;2023-10-13T14:08:50;6.78;;;3.70;;
29816;SDS011;16805;52.956;5.906;2023-10-13T14:11:19;7.57;;;3.03;;
29816;SDS011;16805;52.956;5.906;2023-10-13T14:14:04;9.05;;;3.53;;
29816;SDS011;16805;52.956;5.906;2023-10-13T14:16:50;9.40;;;3.47;;
29816;SDS011;16805;52.956;5.906;2023-10-13T14:19:15;11.65;;;3.80;;
29816;SDS011;16805;52.956;5.906;2023-10-13T14:22:00;14.95;;;3.95;;
29816;SDS011;16805;52.956;5.906;2023-10-13T14:24:31;9.93;;;3.72;;
29816;SDS011;16805;52.956;5.906;2023-10-13T14:27:08;5.63;;;3.90;;
29816;SDS011;16805;52.956;5.906;2023-10-13T14:29:37;14.30;;;3.63;;
29816;SDS011;16805;52.956;5.906;2023-10-13T14:32:10;9.20;;;3.20;;
29816;SDS011;16805;52.956;5.906;2023-10-13T14:34:41;10.13;;;3.45;;
29816;SDS011;16805;52.956;5.906;2023-10-13T14:37:08;9.65;;;3.45;;
29816;SDS011;16805;52.956;5.906;2023-10-13T14:39:38;9.73;;;3.08;;
29816;SDS011;16805;52.956;5.906;2023-10-13T14:42:06;9.35;;;3.50;;
29816;SDS011;16805;52.956;5.906;2023-10-13T14:44:32;14.68;;;3.55;;
29816;SDS011;16805;52.956;5.906;2023-10-13T14:46:58;4.60;;;2.45;;
29816;SDS011;16805;52.956;5.906;2023-10-13T14:49:24;11.27;;;4.40;;
29816;SDS011;16805;52.956;5.906;2023-10-13T14:51:50;5.68;;;3.15;;
29816;SDS011;16805;52.956;5.906;2023-10-13T14:54:16;11.57;;;4.40;;
29816;SDS011;16805;52.956;5.906;2023-10-13T14:56:41;9.40;;;3.33;;
29816;SDS011;16805;52.956;5.906;2023-10-13T14:59:08;12.00;;;3.53;;
29816;SDS011;16805;52.956;5.906;2023-10-13T15:01:41;12.85;;;3.28;;
29816;SDS011;16805;52.956;5.906;2023-10-13T15:04:08;5.88;;;2.72;;
29816;SDS011;16805;52.956;5.906;2023-10-13T15:06:34;13.20;;;3.13;;
29816;SDS011;16805;52.956;5.906;2023-10-13T15:09:00;8.45;;;3.33;;
29816;SDS011;16805;52.956;5.906;2023-10-13T15:11:26;7.65;;;3.20;;
29816;SDS011;16805;52.956;5.906;2023-10-13T15:14:01;5.25;;;3.38;;
29816;SDS011;16805;52.956;5.906;2023-10-13T15:16:27;9.60;;;3.35;;
29816;SDS011;16805;52.956;5.906;2023-10-13T15:18:53;8.75;;;2.90;;
29816;SDS011;16805;52.956;5.906;2023-10-13T15:21:22;7.00;;;2.72;;
29816;SDS011;16805;52.956;5.906;2023-10-13T15:23:55;5.22;;;2.90;;
29816;SDS011;16805;52.956;5.906;2023-10-13T15:26:28;6.70;;;2.63;;
29816;SDS011;16805;52.956;5.906;2023-10-13T15:28:54;12.05;;;3.05;;
29816;SDS011;16805;52.956;5.906;2023-10-13T15:31:25;11.47;;;3.23;;
29816;SDS011;16805;52.956;5.906;2023-10-13T15:33:53;13.07;;;3.53;;